Time;durP1;ratioP1;P1;durP2;ratioP2;P2;SDS_P1;SDS_P2;PMS_P1;PMS_P2;Temp;Humidity;BMP_temperature;BMP_pressure;BME280_temperature;BME280_humidity;BME280_pressure;Samples;Min_cycle;Max_cycle;Signal;HPM_P1;HPM_P2
2022/06/28 00:01:51;;;;;;;3.10;0.95;;;;;;;15.73;77.95;102078.44;5101052;28;20034;-78
2022/06/28 00:04:18;;;;;;;4.75;0.80;;;;;;;15.71;78.31;102078.50;5120090;28;20035;-78
2022/06/28 00:06:44;;;;;;;3.70;0.98;;;;;;;15.71;78.31;102082.94;5110118;28;20043;-77
2022/06/28 00:09:11;;;;;;;1.50;0.60;;;;;;;15.69;78.45;102082.13;5065246;28;20032;-78
2022/06/28 00:11:36;;;;;;;3.20;0.73;;;;;;;15.68;78.51;102080.41;5102764;28;20363;-77
2022/06/28 00:14:01;;;;;;;1.58;0.70;;;;;;;15.66;78.44;102072.56;5081788;28;20023;-78
2022/06/28 00:16:27;;;;;;;4.35;0.90;;;;;;;15.65;78.49;102073.50;5102955;28;20048;-78
2022/06/28 00:18:52;;;;;;;1.35;0.60;;;;;;;15.64;78.39;102069.13;5106975;28;20042;-78
2022/06/28 00:21:18;;;;;;;2.35;0.80;;;;;;;15.63;78.32;102074.50;5095191;28;20031;-78
2022/06/28 00:23:44;;;;;;;2.83;0.70;;;;;;;15.60;78.30;102072.81;5074302;28;20091;-78
2022/06/28 00:26:11;;;;;;;4.60;0.80;;;;;;;15.60;78.51;102074.59;5120675;27;20299;-78
2022/06/28 00:28:37;;;;;;;2.17;0.70;;;;;;;15.58;78.27;102077.31;5120344;28;20023;-78
2022/06/28 00:31:03;;;;;;;1.90;0.50;;;;;;;15.57;78.62;102072.09;5084896;28;20023;-77
2022/06/28 00:33:29;;;;;;;4.05;0.70;;;;;;;15.57;78.31;102072.09;5102235;28;20024;-77
2022/06/28 00:35:54;;;;;;;3.40;0.70;;;;;;;15.54;78.54;102071.28;5119763;28;20337;-78
2022/06/28 00:38:19;;;;;;;3.45;0.95;;;;;;;15.52;78.67;102070.50;5101369;28;20046;-77
2022/06/28 00:40:50;;;;;;;3.38;0.77;;;;;;;15.51;78.16;102087.25;5101559;28;20032;-78
2022/06/28 00:43:17;;;;;;;3.15;0.80;;;;;;;15.49;78.33;102078.53;5119209;28;20039;-78
2022/06/28 00:45:44;;;;;;;1.13;0.60;;;;;;;15.46;78.72;102073.41;5119677;28;20031;-77
2022/06/28 00:48:13;;;;;;;1.80;0.60;;;;;;;15.46;78.33;102078.69;5101237;28;20106;-78
2022/06/28 00:50:38;;;;;;;2.78;0.90;;;;;;;15.45;78.62;102076.97;5118456;28;20031;-78
2022/06/28 00:53:07;;;;;;;1.35;0.50;;;;;;;15.43;78.50;102080.59;5111241;28;20027;-78
2022/06/28 00:55:33;;;;;;;2.65;0.77;;;;;;;15.41;78.48;102080.66;5112506;28;20019;-78
2022/06/28 00:57:59;;;;;;;2.00;0.88;;;;;;;15.40;78.58;102081.56;5107888;28;20043;-78
2022/06/28 01:00:25;;;;;;;1.92;0.65;;;;;;;15.37;78.36;102086.97;5097624;28;20035;-78
2022/06/28 01:02:52;;;;;;;2.20;0.95;;;;;;;15.37;78.37;102086.97;5108565;27;20224;-78
2022/06/28 01:05:18;;;;;;;3.95;1.00;;;;;;;15.34;78.54;102082.69;5086471;28;20030;-78
2022/06/28 01:07:44;;;;;;;1.73;0.80;;;;;;;15.34;78.50;102092.38;5119229;28;20057;-78
2022/06/28 01:10:10;;;;;;;2.58;0.75;;;;;;;15.33;78.37;102091.53;5117381;28;20042;-78
2022/06/28 01:12:35;;;;;;;2.70;0.70;;;;;;;15.32;78.40;102091.59;5109505;28;20027;-77
2022/06/28 01:15:00;;;;;;;3.00;1.10;;;;;;;15.30;78.41;102091.66;5099978;28;20239;-77
2022/06/28 01:17:26;;;;;;;2.55;0.70;;;;;;;15.30;78.10;102090.81;5116314;28;20239;-78
2022/06/28 01:19:52;;;;;;;1.50;0.55;;;;;;;15.28;78.07;102089.97;5118701;28;20043;-77
2022/06/28 01:22:18;;;;;;;1.80;0.52;;;;;;;15.28;78.27;102087.34;5115774;28;20076;-78
2022/06/28 01:24:44;;;;;;;2.20;0.70;;;;;;;15.27;78.29;102091.78;5118768;28;20235;-78
2022/06/28 01:27:10;;;;;;;2.38;0.75;;;;;;;15.28;78.40;102092.63;5118332;28;20028;-78
2022/06/28 01:29:36;;;;;;;1.98;0.90;;;;;;;15.28;77.98;102095.25;5100527;28;20055;-78
2022/06/28 01:32:01;;;;;;;1.20;0.52;;;;;;;15.27;78.01;102094.41;5099321;28;20027;-77
2022/06/28 01:34:27;;;;;;;4.35;1.00;;;;;;;15.27;78.44;102096.19;5111365;28;20046;-78
2022/06/28 01:36:52;;;;;;;1.95;0.70;;;;;;;15.25;78.47;102090.97;5099782;28;20301;-77
2022/06/28 01:39:17;;;;;;;3.55;0.70;;;;;;;15.26;78.09;102092.72;5113596;28;20451;-77
2022/06/28 01:41:43;;;;;;;2.00;0.70;;;;;;;15.25;78.11;102096.25;5097152;28;20040;-77
2022/06/28 01:44:09;;;;;;;3.75;0.85;;;;;;;15.24;78.26;102097.16;5118629;28;20046;-77
2022/06/28 01:46:37;;;;;;;1.33;0.68;;;;;;;15.23;78.22;102092.81;5098831;28;20087;-77
2022/06/28 01:49:04;;;;;;;2.40;1.05;;;;;;;15.23;78.39;102089.34;5117151;28;20058;-78
2022/06/28 01:51:29;;;;;;;2.17;0.73;;;;;;;15.22;78.33;102099.00;5118656;28;20024;-78
2022/06/28 01:53:55;;;;;;;4.43;1.05;;;;;;;15.21;78.29;102101.69;5112160;28;20228;-78
2022/06/28 01:56:20;;;;;;;1.73;0.88;;;;;;;15.21;78.44;102107.88;5122556;28;20039;-78
2022/06/28 01:58:46;;;;;;;2.10;0.90;;;;;;;15.20;78.43;102100.84;5118591;28;20115;-78
2022/06/28 02:01:11;;;;;;;2.33;0.82;;;;;;;15.19;78.48;102106.19;5120064;28;20323;-78
2022/06/28 02:03:37;;;;;;;3.45;0.93;;;;;;;15.17;78.34;102103.59;5117980;28;20059;-78
2022/06/28 02:06:02;;;;;;;2.22;0.70;;;;;;;15.16;78.57;102100.13;5122347;28;20024;-78
2022/06/28 02:08:28;;;;;;;2.05;0.70;;;;;;;15.16;78.37;102104.53;5117810;28;20028;-78
2022/06/28 02:10:59;;;;;;;2.03;0.90;;;;;;;15.14;78.42;102101.09;5122703;28;20070;-77
2022/06/28 02:13:25;;;;;;;5.35;0.88;;;;;;;15.13;78.47;102104.66;5115455;28;20316;-78
2022/06/28 02:15:50;;;;;;;2.28;0.77;;;;;;;15.12;78.49;102103.81;5086371;28;20047;-78
2022/06/28 02:18:16;;;;;;;3.58;0.70;;;;;;;15.12;78.41;102109.09;5103311;28;20258;-78
2022/06/28 02:20:41;;;;;;;2.35;0.60;;;;;;;15.09;78.29;102106.56;5084642;28;20047;-77
2022/06/28 02:23:06;;;;;;;1.55;0.80;;;;;;;15.09;78.49;102103.06;5106398;28;20055;-77
2022/06/28 02:25:32;;;;;;;3.50;0.70;;;;;;;15.08;78.14;102109.25;5103578;28;20038;-78
2022/06/28 02:27:58;;;;;;;2.10;0.82;;;;;;;15.07;78.06;102102.28;5088102;28;20048;-77
2022/06/28 02:30:23;;;;;;;4.70;1.02;;;;;;;15.06;78.39;102113.72;5112835;28;20027;-77
2022/06/28 02:32:48;;;;;;;3.42;0.90;;;;;;;15.05;78.11;102110.25;5114823;28;20100;-78
2022/06/28 02:40:42;;;;;;;2.42;0.75;;;;;;;14.99;78.39;102110.50;5118223;28;20041;-78
2022/06/28 02:43:08;;;;;;;2.75;0.70;;;;;;;14.97;78.58;102115.81;5106993;28;20051;-78
2022/06/28 02:45:36;;;;;;;3.60;0.88;;;;;;;14.97;78.37;102114.94;5083531;28;20027;-78
2022/06/28 02:48:03;;;;;;;4.28;0.77;;;;;;;14.96;78.30;102110.59;5104515;28;20028;-78
2022/06/28 02:50:29;;;;;;;2.15;0.88;;;;;;;14.94;78.79;102115.09;5115969;28;20024;-78
2022/06/28 02:52:55;;;;;;;2.05;0.80;;;;;;;14.94;78.45;102125.63;5102307;28;20342;-78
2022/06/28 02:55:20;;;;;;;2.97;0.85;;;;;;;14.92;78.47;102125.69;5097738;28;20028;-78
2022/06/28 02:57:46;;;;;;;3.95;0.80;;;;;;;14.90;78.44;102119.63;5101733;28;20042;-78
2022/06/28 03:00:14;;;;;;;2.75;0.90;;;;;;;14.91;78.60;102128.38;5110708;28;20399;-78
2022/06/28 03:02:42;;;;;;;3.40;0.93;;;;;;;14.88;78.64;102128.50;5118631;28;20090;-78
2022/06/28 03:05:09;;;;;;;4.20;1.00;;;;;;;14.89;78.55;102130.22;5110743;28;20027;-78
2022/06/28 03:07:36;;;;;;;1.70;0.88;;;;;;;14.87;78.70;102125.00;5119041;28;20019;-78
2022/06/28 03:10:02;;;;;;;2.10;0.80;;;;;;;14.87;78.85;102134.69;5113930;28;20067;-78
2022/06/28 03:12:27;;;;;;;1.90;0.80;;;;;;;14.85;78.44;102136.53;5111917;28;20235;-78
2022/06/28 03:14:52;;;;;;;4.32;1.08;;;;;;;14.85;78.83;102133.91;5062407;28;20323;-78
2022/06/28 03:17:18;;;;;;;4.20;1.58;;;;;;;14.83;78.63;102138.38;5080714;28;20047;-78
2022/06/28 03:19:44;;;;;;;3.17;0.80;;;;;;;14.83;78.74;102141.03;5116793;28;20035;-78
2022/06/28 03:22:09;;;;;;;0.98;0.57;;;;;;;14.82;78.95;102145.41;5101834;28;20031;-78
2022/06/28 03:24:35;;;;;;;5.22;1.00;;;;;;;14.81;78.77;102146.34;5115479;28;20071;-78
2022/06/28 03:27:00;;;;;;;3.03;1.02;;;;;;;14.80;78.53;102152.53;5100973;28;20353;-78
2022/06/28 03:29:26;;;;;;;3.60;1.30;;;;;;;14.80;78.86;102149.03;5096040;28;20227;-78
2022/06/28 03:31:51;;;;;;;3.25;1.05;;;;;;;14.78;78.89;102154.38;5097204;28;20270;-78
2022/06/28 03:34:17;;;;;;;2.30;0.80;;;;;;;14.77;78.49;102166.69;5080692;28;20388;-78
2022/06/28 03:36:43;;;;;;;1.10;0.68;;;;;;;14.76;79.14;102157.06;5083671;28;20047;-78
2022/06/28 03:39:08;;;;;;;1.88;1.13;;;;;;;14.75;79.16;102157.09;5098636;28;20061;-78
2022/06/28 03:41:34;;;;;;;1.25;0.63;;;;;;;14.74;79.08;102156.25;5098937;28;20035;-78
2022/06/28 03:43:59;;;;;;;2.17;0.90;;;;;;;14.74;78.96;102163.31;5110006;28;20303;-78
2022/06/28 03:46:25;;;;;;;2.78;1.23;;;;;;;14.73;79.21;102167.69;5099422;28;20098;-78
2022/06/28 03:48:50;;;;;;;2.47;1.23;;;;;;;14.73;79.07;102165.06;5115048;28;20048;-78
2022/06/28 03:51:17;;;;;;;3.92;0.90;;;;;;;14.72;79.07;102170.44;5095777;28;20047;-79
2022/06/28 03:53:43;;;;;;;1.80;0.90;;;;;;;14.72;79.39;102168.63;5112084;28;20043;-78
2022/06/28 03:56:08;;;;;;;4.15;1.13;;;;;;;14.70;79.16;102167.84;5095409;28;20040;-78
2022/06/28 03:58:34;;;;;;;2.70;0.70;;;;;;;14.72;79.44;102175.69;5112598;28;20035;-78
2022/06/28 04:00:59;;;;;;;3.50;1.35;;;;;;;14.72;79.35;102178.34;5100004;28;20043;-78
2022/06/28 04:03:25;;;;;;;3.53;1.40;;;;;;;14.71;79.28;102177.44;5098238;28;20334;-78
2022/06/28 04:05:51;;;;;;;5.55;1.20;;;;;;;14.71;79.21;102176.59;5117709;28;20043;-79
2022/06/28 04:08:17;;;;;;;4.65;1.42;;;;;;;14.71;79.30;102179.25;5116013;28;20041;-78
2022/06/28 04:10:42;;;;;;;3.47;1.13;;;;;;;14.70;79.51;102180.16;5098658;28;20063;-78
2022/06/28 04:13:08;;;;;;;2.30;0.90;;;;;;;14.69;79.23;102181.94;5090558;28;20330;-78
2022/06/28 04:15:35;;;;;;;3.33;0.85;;;;;;;14.70;79.66;102177.53;5079922;28;20047;-79
2022/06/28 04:18:01;;;;;;;5.88;1.70;;;;;;;14.69;79.49;102176.66;5097743;28;20362;-78
2022/06/28 04:20:26;;;;;;;5.78;1.25;;;;;;;14.69;79.74;102184.56;5113540;28;20533;-78
2022/06/28 04:22:52;;;;;;;5.07;1.20;;;;;;;14.69;79.66;102183.72;5084621;28;20036;-78
2022/06/28 04:25:18;;;;;;;2.90;1.08;;;;;;;14.69;79.38;102187.19;5116636;28;20043;-78
2022/06/28 04:27:43;;;;;;;2.38;1.30;;;;;;;14.69;79.54;102184.56;5081698;28;20106;-79
2022/06/28 04:30:10;;;;;;;2.55;0.80;;;;;;;14.70;79.50;102185.44;5096020;28;20051;-78
2022/06/28 04:32:35;;;;;;;2.88;0.80;;;;;;;14.69;79.80;102183.72;5117101;28;20058;-78
2022/06/28 04:35:01;;;;;;;4.20;1.17;;;;;;;14.70;79.55;102188.09;5116183;28;20039;-78
2022/06/28 04:37:26;;;;;;;3.65;1.20;;;;;;;14.69;79.30;102184.56;5115292;28;20038;-78
2022/06/28 04:39:52;;;;;;;2.90;0.90;;;;;;;14.70;79.34;102183.66;5073573;28;20165;-78
2022/06/28 04:42:18;;;;;;;5.75;1.58;;;;;;;14.70;79.45;102182.81;5097583;28;20365;-78
2022/06/28 04:44:43;;;;;;;3.00;1.08;;;;;;;14.70;79.30;102182.81;5115628;28;20102;-78
2022/06/28 04:47:09;;;;;;;4.72;1.20;;;;;;;14.70;79.13;102178.38;5098484;28;20040;-78
2022/06/28 04:49:34;;;;;;;3.75;1.35;;;;;;;14.71;79.28;102181.88;5098561;28;20238;-79
2022/06/28 04:52:00;;;;;;;3.08;0.98;;;;;;;14.70;79.10;102180.16;5096272;28;20377;-78
2022/06/28 04:54:26;;;;;;;2.67;1.00;;;;;;;14.70;79.14;102181.03;5098067;28;20345;-78
2022/06/28 04:56:52;;;;;;;4.25;1.27;;;;;;;14.70;79.43;102181.03;5097970;28;20034;-78
2022/06/28 04:59:17;;;;;;;5.00;1.00;;;;;;;14.72;79.38;102188.88;5095862;28;20096;-78
2022/06/28 05:01:43;;;;;;;4.53;1.10;;;;;;;14.72;79.11;102186.25;5097898;28;20031;-78
2022/06/28 05:04:08;;;;;;;3.83;1.30;;;;;;;14.71;79.30;102182.72;5085025;28;20220;-78
2022/06/28 05:06:33;;;;;;;2.58;1.23;;;;;;;14.72;79.26;102189.72;5113401;28;20031;-78
2022/06/28 05:08:59;;;;;;;2.83;1.10;;;;;;;14.72;79.28;102188.88;5109632;28;20323;-78
2022/06/28 05:11:25;;;;;;;5.10;1.40;;;;;;;14.73;79.18;102194.06;5081303;28;20047;-78
2022/06/28 05:13:50;;;;;;;8.30;2.00;;;;;;;14.73;79.50;102188.81;5114166;28;20241;-78
2022/06/28 05:16:15;;;;;;;5.10;1.52;;;;;;;14.73;79.59;102185.31;5086394;28;20215;-78
2022/06/28 05:18:41;;;;;;;2.05;1.27;;;;;;;14.73;79.82;102183.53;5106842;28;20050;-78
2022/06/28 05:21:06;;;;;;;5.03;1.55;;;;;;;14.74;79.44;102184.41;5113026;28;20039;-78
2022/06/28 05:23:32;;;;;;;5.05;1.55;;;;;;;14.73;79.38;102178.25;5111494;28;20039;-78
2022/06/28 05:25:57;;;;;;;4.95;1.77;;;;;;;14.75;79.34;102183.47;5105969;28;20035;-78
2022/06/28 05:28:23;;;;;;;4.43;1.17;;;;;;;14.75;79.51;102183.47;5081139;28;20350;-78
2022/06/28 05:30:48;;;;;;;6.25;1.70;;;;;;;14.75;79.74;102184.34;5091778;28;20035;-78
2022/06/28 05:33:13;;;;;;;2.15;1.15;;;;;;;14.77;79.75;102187.78;5097082;28;20330;-78
2022/06/28 05:35:39;;;;;;;7.82;1.58;;;;;;;14.77;79.50;102181.63;5115882;28;20024;-78
2022/06/28 05:38:04;;;;;;;7.90;1.52;;;;;;;14.75;79.46;102172.94;5115619;28;20280;-78
2022/06/28 05:40:30;;;;;;;5.03;1.50;;;;;;;14.75;79.52;102187.00;5111364;28;20044;-78
2022/06/28 05:42:55;;;;;;;6.03;1.65;;;;;;;14.77;79.62;102192.19;5097945;28;20123;-78
2022/06/28 05:45:21;;;;;;;5.28;1.60;;;;;;;14.77;79.46;102190.44;5093661;28;20051;-78
2022/06/28 05:47:46;;;;;;;2.05;1.13;;;;;;;14.77;79.29;102177.25;5091882;28;20338;-78
2022/06/28 05:50:12;;;;;;;4.88;1.60;;;;;;;14.78;79.54;102175.47;5097424;28;20128;-78
2022/06/28 05:52:37;;;;;;;5.78;1.45;;;;;;;14.77;78.61;102176.38;5116316;28;20076;-78
2022/06/28 05:55:03;;;;;;;4.78;1.73;;;;;;;14.77;78.81;102179.88;5098317;28;20080;-78
2022/06/28 05:57:28;;;;;;;3.70;1.85;;;;;;;14.78;78.64;102184.22;5097798;28;20058;-78
2022/06/28 05:59:54;;;;;;;3.70;1.65;;;;;;;14.80;79.10;102178.03;5114403;28;20534;-78
2022/06/28 06:02:19;;;;;;;2.72;1.45;;;;;;;14.80;79.22;102176.25;5097944;28;20345;-78
2022/06/28 06:04:45;;;;;;;5.85;1.80;;;;;;;14.81;79.03;102171.84;5097700;28;20039;-78
2022/06/28 06:07:10;;;;;;;6.30;2.30;;;;;;;14.81;79.10;102171.84;5113549;28;20334;-78
2022/06/28 06:09:36;;;;;;;2.40;1.40;;;;;;;14.83;79.07;102172.66;5114058;28;20043;-78
2022/06/28 06:12:04;;;;;;;3.63;1.67;;;;;;;14.82;79.12;102178.84;5115585;28;20066;-78
2022/06/28 06:14:29;;;;;;;8.25;2.53;;;;;;;14.82;79.09;102182.34;5095363;28;20043;-78
2022/06/28 06:16:55;;;;;;;4.75;2.20;;;;;;;14.83;79.26;102177.94;5115390;28;20047;-78
2022/06/28 06:19:20;;;;;;;6.45;2.05;;;;;;;14.84;79.47;102183.13;5106822;28;20035;-78
2022/06/28 06:21:46;;;;;;;3.05;1.75;;;;;;;14.85;79.44;102186.66;5097061;28;20352;-78
2022/06/28 06:24:11;;;;;;;6.82;1.90;;;;;;;14.85;79.55;102184.88;5095704;28;20073;-79
2022/06/28 06:26:37;;;;;;;5.75;2.20;;;;;;;14.85;79.67;102191.94;5111895;28;20048;-78
2022/06/28 06:29:02;;;;;;;6.20;2.30;;;;;;;14.86;79.50;102183.97;5109671;28;20036;-78
2022/06/28 06:31:28;;;;;;;5.78;1.55;;;;;;;14.86;79.35;102185.72;5097133;28;20051;-79
2022/06/28 06:33:54;;;;;;;6.68;1.83;;;;;;;14.85;78.66;102192.78;5090842;28;20076;-79
2022/06/28 06:36:19;;;;;;;5.80;1.77;;;;;;;14.88;79.04;102186.50;5113619;28;20346;-78
2022/06/28 06:38:46;;;;;;;3.50;1.77;;;;;;;14.88;79.18;102189.16;5096270;27;20067;-78
2022/06/28 06:41:11;;;;;;;5.63;1.88;;;;;;;14.89;79.00;102189.09;5090756;28;20086;-79
2022/06/28 06:43:36;;;;;;;6.75;1.95;;;;;;;14.88;78.43;102190.03;5091302;27;20406;-78
2022/06/28 06:46:02;;;;;;;4.72;2.10;;;;;;;14.91;78.63;102194.31;5130741;27;20315;-78
2022/06/28 06:48:27;;;;;;;3.42;2.13;;;;;;;14.93;79.34;102195.13;5119514;27;20048;-78
2022/06/28 06:50:52;;;;;;;5.78;1.75;;;;;;;14.94;79.39;102183.66;5113177;28;20035;-78
2022/06/28 06:53:21;;;;;;;8.35;2.42;;;;;;;14.96;79.50;102192.38;5096373;28;20077;-78
2022/06/28 06:55:47;;;;;;;3.70;1.92;;;;;;;14.98;79.60;102190.53;5090590;28;20091;-78
2022/06/28 06:58:14;;;;;;;6.18;2.20;;;;;;;15.00;79.61;102187.84;5095325;28;20035;-78
2022/06/28 07:00:40;;;;;;;8.95;2.60;;;;;;;15.02;79.82;102191.28;5100313;28;20119;-78
2022/06/28 07:03:05;;;;;;;14.63;3.20;;;;;;;15.06;81.26;102198.16;5110543;28;20031;-78
2022/06/28 07:05:31;;;;;;;15.07;3.15;;;;;;;15.08;81.07;102184.00;5093570;28;20351;-78
2022/06/28 07:07:57;;;;;;;6.40;2.28;;;;;;;15.13;81.78;102194.38;5114878;27;20096;-78
2022/06/28 07:10:23;;;;;;;10.13;2.50;;;;;;;15.15;81.51;102189.88;5119936;27;20039;-78
2022/06/28 07:12:49;;;;;;;6.45;2.42;;;;;;;15.19;81.70;102199.44;5116214;27;20415;-79
2022/06/28 07:15:15;;;;;;;13.18;3.45;;;;;;;15.21;80.74;102188.78;5113558;28;20036;-78
2022/06/28 07:17:40;;;;;;;9.98;2.42;;;;;;;15.24;80.82;102191.31;5100788;28;20111;-78
2022/06/28 07:20:07;;;;;;;10.40;2.72;;;;;;;15.26;81.23;102198.28;5090670;28;20343;-79
2022/06/28 07:22:33;;;;;;;11.23;2.58;;;;;;;15.31;81.90;102198.06;5113338;28;20106;-78
2022/06/28 07:24:59;;;;;;;8.02;2.05;;;;;;;15.34;82.16;102195.34;5114691;28;20050;-78
2022/06/28 07:27:25;;;;;;;6.13;1.92;;;;;;;15.36;81.51;102202.25;5107880;28;20024;-79
2022/06/28 07:29:50;;;;;;;12.38;3.25;;;;;;;15.39;81.18;102197.78;5115800;28;20103;-79
2022/06/28 07:32:16;;;;;;;11.95;3.10;;;;;;;15.38;81.76;102194.28;5096052;28;20059;-79
2022/06/28 07:34:41;;;;;;;6.30;2.33;;;;;;;15.43;81.69;102204.69;5094162;28;20043;-78
2022/06/28 07:37:07;;;;;;;9.70;2.35;;;;;;;15.44;81.77;102199.31;5117099;28;20038;-78
2022/06/28 07:39:32;;;;;;;6.45;1.85;;;;;;;15.47;81.68;102204.47;5111569;28;20333;-78
2022/06/28 07:41:59;;;;;;;13.85;2.75;;;;;;;15.50;81.73;102201.72;5096808;28;20102;-79
2022/06/28 07:44:24;;;;;;;5.22;2.08;;;;;;;15.53;81.93;102200.72;5111558;28;20032;-78
2022/06/28 07:46:49;;;;;;;10.35;2.17;;;;;;;15.54;81.09;102190.09;5099761;28;20096;-79
2022/06/28 07:49:15;;;;;;;16.23;3.70;;;;;;;15.57;81.48;102204.09;5083549;28;20031;-78
2022/06/28 07:54:24;;;;;;;9.10;2.30;;;;;;;15.62;81.46;102204.78;5116193;28;20034;-78
2022/06/28 07:56:49;;;;;;;7.97;2.22;;;;;;;15.64;81.42;102195.88;5081923;28;20051;-78
2022/06/28 07:59:15;;;;;;;10.43;2.80;;;;;;;15.67;80.95;102200.19;5115078;28;20028;-79
2022/06/28 08:01:40;;;;;;;7.85;2.15;;;;;;;15.71;81.12;102196.50;5095314;28;20040;-78
2022/06/28 08:04:07;;;;;;;12.07;2.15;;;;;;;15.74;81.09;102194.63;5109563;27;20035;-79
2022/06/28 08:06:33;;;;;;;3.45;1.33;;;;;;;15.79;80.46;102185.63;5102830;28;20038;-79
2022/06/28 08:08:59;;;;;;;12.63;2.38;;;;;;;15.84;80.39;102189.81;5096645;28;20039;-78
2022/06/28 08:11:24;;;;;;;7.72;1.55;;;;;;;15.87;80.48;102194.13;5114256;27;20272;-78
2022/06/28 08:13:50;;;;;;;6.05;1.92;;;;;;;15.93;80.26;102200.03;5078788;28;20032;-79
2022/06/28 08:16:16;;;;;;;8.48;1.90;;;;;;;15.96;80.24;102191.09;5097044;28;20350;-79
2022/06/28 08:18:42;;;;;;;4.82;1.60;;;;;;;15.99;79.65;102193.63;5094759;28;20040;-78
2022/06/28 08:21:08;;;;;;;8.82;1.70;;;;;;;16.01;79.08;102194.41;5111374;28;20031;-79
2022/06/28 08:23:34;;;;;;;9.82;2.83;;;;;;;16.03;79.04;102184.63;5094812;28;20062;-78
2022/06/28 08:25:59;;;;;;;5.07;1.60;;;;;;;16.04;79.18;102196.91;5115126;28;20334;-78
2022/06/28 08:28:25;;;;;;;6.03;1.85;;;;;;;16.07;79.20;102193.28;5117903;28;20035;-78
2022/06/28 08:30:51;;;;;;;8.65;2.35;;;;;;;16.09;79.13;102191.44;5107906;27;20043;-78
2022/06/28 08:33:17;;;;;;;5.80;1.65;;;;;;;16.12;78.95;102196.59;5115934;27;20035;-78
2022/06/28 08:35:42;;;;;;;8.60;2.55;;;;;;;16.14;79.23;102188.59;5096436;28;20368;-79
2022/06/28 08:38:08;;;;;;;5.22;1.60;;;;;;;16.18;78.53;102195.47;5112144;27;20051;-78
2022/06/28 08:40:35;;;;;;;5.03;1.77;;;;;;;16.19;77.79;102192.78;5095542;28;20046;-78
2022/06/28 08:43:01;;;;;;;5.75;1.60;;;;;;;16.21;78.14;102187.38;5117338;28;20144;-78
2022/06/28 08:45:27;;;;;;;4.57;1.40;;;;;;;16.23;77.35;102189.06;5111685;28;20038;-78
2022/06/28 08:47:55;;;;;;;8.60;1.75;;;;;;;16.26;77.54;102186.28;5108511;28;20023;-78
2022/06/28 08:50:34;;;;;;;6.03;1.88;;;;;;;16.29;77.88;102180.00;5108223;28;20035;-78
2022/06/28 08:53:00;;;;;;;;;;;;;;;16.31;77.85;102168.44;5105142;28;20034;-78
2022/06/28 08:55:26;;;;;;;9.35;2.03;;;;;;;16.36;78.41;102170.88;5096441;28;19915;-79
2022/06/28 08:57:53;;;;;;;6.20;1.70;;;;;;;16.39;78.13;102170.75;5097387;28;20050;-79
2022/06/28 09:00:19;;;;;;;5.55;1.52;;;;;;;16.42;77.99;102169.75;5089467;28;20378;-78
2022/06/28 09:02:46;;;;;;;4.03;1.25;;;;;;;16.45;77.57;102174.91;5083834;28;20088;-78
2022/06/28 09:05:13;;;;;;;5.00;1.40;;;;;;;16.45;76.37;102167.84;5113037;28;20307;-78
2022/06/28 09:07:38;;;;;;;3.50;1.45;;;;;;;16.50;76.63;102170.28;5110279;28;20058;-78
2022/06/28 09:10:04;;;;;;;5.47;1.70;;;;;;;16.53;76.94;102162.19;5093503;28;20044;-78
2022/06/28 09:12:33;;;;;;;5.32;1.48;;;;;;;16.59;76.87;102171.63;5112279;28;20118;-78
2022/06/28 09:14:59;;;;;;;8.23;1.70;;;;;;;16.60;76.83;102168.94;5096854;28;20334;-78
2022/06/28 09:17:28;;;;;;;6.75;1.52;;;;;;;16.64;76.38;102167.00;5087628;28;20038;-78
2022/06/28 09:20:08;;;;;;;3.03;1.10;;;;;;;16.66;76.28;102162.50;5084356;28;20310;-78
2022/06/28 09:22:42;;;;;;;4.32;1.50;;;;;;;16.70;76.13;102162.31;5102608;28;20032;-78
2022/06/28 09:25:10;;;;;;;4.80;1.27;;;;;;;16.75;75.88;102172.66;5092953;28;20046;-78
2022/06/28 09:27:37;;;;;;;;;;;;;;;16.78;75.99;102155.81;5101939;28;20087;-78
2022/06/28 09:30:13;;;;;;;6.72;1.30;;;;;;;16.80;75.27;102159.25;5083247;28;20000;-78
2022/06/28 09:32:39;;;;;;;2.92;1.33;;;;;;;16.83;75.32;102161.78;5085696;28;20047;-78
2022/06/28 09:35:10;;;;;;;4.53;1.13;;;;;;;16.83;75.12;102152.03;5097333;28;20016;-78
2022/06/28 09:38:01;;;;;;;3.53;1.20;;;;;;;16.85;75.15;102151.97;5115100;28;20023;-78
2022/06/28 09:40:29;;;;;;;4.60;1.27;;;;;;;16.88;75.17;102151.81;5119132;28;20031;-79
2022/06/28 09:43:15;;;;;;;6.72;1.60;;;;;;;16.90;74.62;102144.69;5094833;28;20019;-78
2022/06/28 09:45:50;;;;;;;7.72;1.63;;;;;;;16.92;74.00;102157.81;5107405;28;20024;-79
2022/06/28 09:48:17;;;;;;;5.55;1.77;;;;;;;16.95;74.37;102150.59;5132662;22;20048;-78
2022/06/28 09:50:42;;;;;;;4.32;1.05;;;;;;;16.99;74.02;102154.84;5083267;28;20080;-78
2022/06/28 09:53:10;;;;;;;5.60;1.67;;;;;;;17.01;73.08;102144.19;5097589;28;20116;-79
2022/06/28 09:55:35;;;;;;;3.97;1.35;;;;;;;17.05;73.81;102148.41;5081303;28;20044;-78
2022/06/28 09:58:01;;;;;;;3.38;1.27;;;;;;;17.08;73.83;102146.47;5081996;28;20071;-79
2022/06/28 10:00:28;;;;;;;7.55;1.50;;;;;;;17.12;73.40;102148.94;5073136;28;20248;-78
2022/06/28 10:02:55;;;;;;;3.53;1.20;;;;;;;17.15;73.67;102148.81;5065404;28;20043;-78
2022/06/28 10:05:20;;;;;;;7.68;1.30;;;;;;;17.15;72.56;102135.59;5071123;28;20056;-78
2022/06/28 10:07:46;;;;;;;5.50;1.27;;;;;;;17.18;72.34;102136.28;5071799;28;20032;-78
2022/06/28 10:10:13;;;;;;;6.13;1.50;;;;;;;17.22;72.30;102134.34;5067088;28;20044;-78
2022/06/28 10:15:37;;;;;;;3.63;1.00;;;;;;;17.30;72.24;102142.81;5064480;28;20294;-78
2022/06/28 10:18:16;;;;;;;6.10;0.88;;;;;;;17.35;72.33;102146.06;5075546;28;20229;-79
2022/06/28 10:20:46;;;;;;;3.28;1.20;;;;;;;17.37;71.82;102135.41;5074785;28;20036;-78
2022/06/28 10:23:39;;;;;;;3.15;0.93;;;;;;;17.40;71.97;102135.25;5072887;28;20033;-78
2022/06/28 10:26:18;;;;;;;3.95;1.50;;;;;;;17.43;71.03;102135.13;5070117;28;20104;-79
2022/06/28 10:28:56;;;;;;;3.10;0.90;;;;;;;17.45;69.61;102136.75;5073866;28;20040;-78
2022/06/28 10:31:22;;;;;;;2.58;0.90;;;;;;;17.48;70.84;102134.88;5074238;28;20067;-79
2022/06/28 10:33:48;;;;;;;2.90;0.88;;;;;;;17.51;70.82;102129.44;5069162;28;20037;-78
2022/06/28 10:36:16;;;;;;;4.72;1.73;;;;;;;17.51;69.82;102122.34;5075121;28;20024;-80
2022/06/28 10:39:19;;;;;;;3.15;0.93;;;;;;;17.50;67.63;102111.81;5088751;28;20059;-78
2022/06/28 10:41:51;;;;;;;2.17;1.10;;;;;;;17.52;67.68;102117.88;5071808;28;20047;-78
2022/06/28 10:44:29;;;;;;;3.30;0.80;;;;;;;17.55;68.83;102115.09;5077930;28;20118;-78
2022/06/28 10:47:01;;;;;;;6.15;1.17;;;;;;;17.59;68.94;102121.94;5058249;28;20244;-79
2022/06/28 10:49:49;;;;;;;4.18;1.17;;;;;;;17.62;68.66;102114.72;5070651;28;20123;-78
2022/06/28 10:52:15;;;;;;;;;;;;;;;17.65;68.74;102105.78;5071542;28;20024;-78
2022/06/28 10:55:04;;;;;;;5.93;1.55;;;;;;;17.70;68.40;102105.53;5062526;28;19912;-78
2022/06/28 10:57:38;;;;;;;3.58;0.88;;;;;;;17.72;69.11;102112.47;5066433;28;20041;-78
2022/06/28 11:00:07;;;;;;;8.85;1.25;;;;;;;17.74;68.23;102107.94;5074822;28;20055;-79
2022/06/28 11:02:48;;;;;;;2.65;1.05;;;;;;;17.77;67.45;102113.09;5074558;28;20036;-78
2022/06/28 11:05:13;;;;;;;3.35;0.77;;;;;;;17.81;68.14;102101.41;5075221;28;20433;-79
2022/06/28 11:07:40;;;;;;;0.98;0.82;;;;;;;17.88;69.14;102101.09;5078134;28;20192;-78
2022/06/28 11:10:16;;;;;;;3.97;1.15;;;;;;;17.87;66.79;102089.66;5071396;28;20054;-78
2022/06/28 11:12:42;;;;;;;3.05;1.13;;;;;;;17.89;65.39;102095.75;5074258;28;20032;-78
2022/06/28 11:15:39;;;;;;;3.17;0.93;;;;;;;17.88;65.61;102088.72;5048496;28;20073;-78
2022/06/28 11:18:14;;;;;;;3.25;0.70;;;;;;;17.91;67.31;102087.72;5074586;28;20036;-78
2022/06/28 11:20:40;;;;;;;1.73;0.63;;;;;;;17.93;64.77;102085.84;5074839;28;20087;-78
2022/06/28 11:23:06;;;;;;;1.45;0.70;;;;;;;18.00;66.97;102092.53;5077261;28;20048;-78
2022/06/28 11:28:15;;;;;;;2.10;0.85;;;;;;;18.09;64.61;102081.44;5068071;28;20048;-78
2022/06/28 11:30:44;;;;;;;3.83;0.88;;;;;;;18.12;64.13;102076.00;5052088;28;20029;-78
2022/06/28 11:33:13;;;;;;;;;;;;;;;18.17;65.13;102079.25;5069267;28;20351;-78
2022/06/28 11:35:40;;;;;;;3.63;0.88;;;;;;;18.22;65.52;102071.03;5070723;28;19917;-78
2022/06/28 11:38:09;;;;;;;2.83;0.77;;;;;;;18.26;65.42;102079.69;5072996;28;20407;-79
2022/06/28 11:40:39;;;;;;;2.25;0.85;;;;;;;18.29;66.01;102072.44;5071218;28;20387;-78